sensor_id;sensor_type;location;lat;lon;timestamp;temperature;humidity
73149;SHT30;61346;48.930;2.266;2022-12-07T00:01:12;4.50;78.63
73149;SHT30;61346;48.930;2.266;2022-12-07T00:03:39;4.48;78.46
73149;SHT30;61346;48.930;2.266;2022-12-07T00:06:08;4.48;78.63
73149;SHT30;61346;48.930;2.266;2022-12-07T00:08:34;4.45;78.54
73149;SHT30;61346;48.930;2.266;2022-12-07T00:11:11;4.44;78.63
73149;SHT30;61346;48.930;2.266;2022-12-07T00:13:37;4.46;78.79
73149;SHT30;61346;48.930;2.266;2022-12-07T00:16:12;4.48;78.69
73149;SHT30;61346;48.930;2.266;2022-12-07T00:18:38;4.48;78.65
73149;SHT30;61346;48.930;2.266;2022-12-07T00:21:09;4.48;78.57
73149;SHT30;61346;48.930;2.266;2022-12-07T00:23:36;4.45;78.52
73149;SHT30;61346;48.930;2.266;2022-12-07T00:28:33;4.39;78.63
73149;SHT30;61346;48.930;2.266;2022-12-07T00:31:07;4.38;78.62
73149;SHT30;61346;48.930;2.266;2022-12-07T00:33:33;4.39;78.70
73149;SHT30;61346;48.930;2.266;2022-12-07T00:35:59;4.41;78.77
73149;SHT30;61346;48.930;2.266;2022-12-07T00:38:28;4.42;78.56
73149;SHT30;61346;48.930;2.266;2022-12-07T00:41:02;4.41;78.70
73149;SHT30;61346;48.930;2.266;2022-12-07T00:43:28;4.39;78.79
73149;SHT30;61346;48.930;2.266;2022-12-07T00:45:54;4.42;78.61
73149;SHT30;61346;48.930;2.266;2022-12-07T00:48:20;4.44;78.49
73149;SHT30;61346;48.930;2.266;2022-12-07T00:50:46;4.39;78.62
73149;SHT30;61346;48.930;2.266;2022-12-07T00:53:12;4.38;78.68
73149;SHT30;61346;48.930;2.266;2022-12-07T00:55:38;4.35;78.74
73149;SHT30;61346;48.930;2.266;2022-12-07T00:58:05;4.34;78.92
73149;SHT30;61346;48.930;2.266;2022-12-07T01:00:31;4.34;78.54
73149;SHT30;61346;48.930;2.266;2022-12-07T01:02:58;4.35;78.65
73149;SHT30;61346;48.930;2.266;2022-12-07T01:05:23;4.37;78.47
73149;SHT30;61346;48.930;2.266;2022-12-07T01:07:48;4.38;78.33
73149;SHT30;61346;48.930;2.266;2022-12-07T01:10:14;4.34;78.08
73149;SHT30;61346;48.930;2.266;2022-12-07T01:12:40;4.27;78.12
73149;SHT30;61346;48.930;2.266;2022-12-07T01:15:08;4.22;78.23
73149;SHT30;61346;48.930;2.266;2022-12-07T01:17:34;4.15;78.28
73149;SHT30;61346;48.930;2.266;2022-12-07T01:20:00;4.12;78.23
73149;SHT30;61346;48.930;2.266;2022-12-07T01:22:26;4.12;78.27
73149;SHT30;61346;48.930;2.266;2022-12-07T01:24:52;4.08;78.31
73149;SHT30;61346;48.930;2.266;2022-12-07T01:27:18;4.07;78.40
73149;SHT30;61346;48.930;2.266;2022-12-07T01:29:43;4.02;78.46
73149;SHT30;61346;48.930;2.266;2022-12-07T01:32:09;4.02;78.50
73149;SHT30;61346;48.930;2.266;2022-12-07T01:34:34;3.95;78.55
73149;SHT30;61346;48.930;2.266;2022-12-07T01:36:59;3.91;78.50
73149;SHT30;61346;48.930;2.266;2022-12-07T01:39:25;3.87;78.74
73149;SHT30;61346;48.930;2.266;2022-12-07T01:41:50;3.86;78.84
73149;SHT30;61346;48.930;2.266;2022-12-07T01:44:23;3.90;78.86
73149;SHT30;61346;48.930;2.266;2022-12-07T01:46:52;3.89;78.73
73149;SHT30;61346;48.930;2.266;2022-12-07T01:49:20;3.90;78.91
73149;SHT30;61346;48.930;2.266;2022-12-07T01:51:48;3.91;78.85
73149;SHT30;61346;48.930;2.266;2022-12-07T01:54:15;3.94;79.08
73149;SHT30;61346;48.930;2.266;2022-12-07T01:56:47;3.98;79.16
73149;SHT30;61346;48.930;2.266;2022-12-07T01:59:13;3.97;79.17
73149;SHT30;61346;48.930;2.266;2022-12-07T02:01:38;3.94;79.24
73149;SHT30;61346;48.930;2.266;2022-12-07T02:04:06;3.94;79.34
73149;SHT30;61346;48.930;2.266;2022-12-07T02:06:33;3.97;79.43
73149;SHT30;61346;48.930;2.266;2022-12-07T02:09:00;4.01;79.40
73149;SHT30;61346;48.930;2.266;2022-12-07T02:11:25;4.05;79.31
73149;SHT30;61346;48.930;2.266;2022-12-07T02:13:51;4.08;79.35
73149;SHT30;61346;48.930;2.266;2022-12-07T02:19:36;4.11;79.28
73149;SHT30;61346;48.930;2.266;2022-12-07T02:22:22;4.10;79.13
73149;SHT30;61346;48.930;2.266;2022-12-07T02:25:57;4.10;79.24
73149;SHT30;61346;48.930;2.266;2022-12-07T02:28:12;4.08;79.49
73149;SHT30;61346;48.930;2.266;2022-12-07T02:30:47;4.12;79.41
73149;SHT30;61346;48.930;2.266;2022-12-07T02:33:17;4.14;79.15
73149;SHT30;61346;48.930;2.266;2022-12-07T02:36:04;4.12;79.08
73149;SHT30;61346;48.930;2.266;2022-12-07T02:38:38;4.12;79.00
73149;SHT30;61346;48.930;2.266;2022-12-07T02:41:10;4.12;79.03
73149;SHT30;61346;48.930;2.266;2022-12-07T02:43:42;4.10;79.05
73149;SHT30;61346;48.930;2.266;2022-12-07T02:46:12;4.05;79.16
73149;SHT30;61346;48.930;2.266;2022-12-07T02:48:40;4.00;79.27
73149;SHT30;61346;48.930;2.266;2022-12-07T02:51:07;4.01;79.34
73149;SHT30;61346;48.930;2.266;2022-12-07T02:53:42;4.08;79.21
73149;SHT30;61346;48.930;2.266;2022-12-07T03:02:39;4.02;79.04
73149;SHT30;61346;48.930;2.266;2022-12-07T03:11:13;4.00;79.16
73149;SHT30;61346;48.930;2.266;2022-12-07T03:16:40;3.87;79.19
73149;SHT30;61346;48.930;2.266;2022-12-07T03:19:09;3.87;79.55
73149;SHT30;61346;48.930;2.266;2022-12-07T03:21:46;3.87;79.60
73149;SHT30;61346;48.930;2.266;2022-12-07T03:24:17;3.86;79.55
73149;SHT30;61346;48.930;2.266;2022-12-07T03:27:01;3.80;79.67
73149;SHT30;61346;48.930;2.266;2022-12-07T03:29:33;3.72;79.47
73149;SHT30;61346;48.930;2.266;2022-12-07T03:32:23;3.69;79.87
73149;SHT30;61346;48.930;2.266;2022-12-07T03:35:00;3.62;79.85
73149;SHT30;61346;48.930;2.266;2022-12-07T03:37:34;3.62;79.66
73149;SHT30;61346;48.930;2.266;2022-12-07T03:40:15;3.58;79.95
73149;SHT30;61346;48.930;2.266;2022-12-07T03:42:44;3.53;80.00
73149;SHT30;61346;48.930;2.266;2022-12-07T03:45:10;3.51;80.13
73149;SHT30;61346;48.930;2.266;2022-12-07T03:47:38;3.51;80.13
73149;SHT30;61346;48.930;2.266;2022-12-07T03:50:15;3.52;80.15
73149;SHT30;61346;48.930;2.266;2022-12-07T03:52:53;3.53;80.36
73149;SHT30;61346;48.930;2.266;2022-12-07T03:55:30;3.53;81.40
73149;SHT30;61346;48.930;2.266;2022-12-07T03:58:00;3.53;80.46
73149;SHT30;61346;48.930;2.266;2022-12-07T04:00:28;3.55;81.12
73149;SHT30;61346;48.930;2.266;2022-12-07T04:02:55;3.55;80.29
73149;SHT30;61346;48.930;2.266;2022-12-07T04:05:23;3.56;80.68
73149;SHT30;61346;48.930;2.266;2022-12-07T04:07:49;3.62;80.44
73149;SHT30;61346;48.930;2.266;2022-12-07T04:10:14;3.64;80.28
73149;SHT30;61346;48.930;2.266;2022-12-07T04:12:40;3.67;79.72
73149;SHT30;61346;48.930;2.266;2022-12-07T04:15:05;3.67;79.77
73149;SHT30;61346;48.930;2.266;2022-12-07T04:17:32;3.67;79.94
73149;SHT30;61346;48.930;2.266;2022-12-07T04:19:58;3.69;80.04
73149;SHT30;61346;48.930;2.266;2022-12-07T04:22:23;3.69;80.07
73149;SHT30;61346;48.930;2.266;2022-12-07T04:24:48;3.72;79.96
73149;SHT30;61346;48.930;2.266;2022-12-07T04:27:14;3.74;79.79
73149;SHT30;61346;48.930;2.266;2022-12-07T04:29:39;3.76;79.57
73149;SHT30;61346;48.930;2.266;2022-12-07T04:32:06;3.80;79.48
73149;SHT30;61346;48.930;2.266;2022-12-07T04:34:31;3.82;79.36
73149;SHT30;61346;48.930;2.266;2022-12-07T04:36:56;3.80;79.53
73149;SHT30;61346;48.930;2.266;2022-12-07T04:39:26;3.84;79.30
73149;SHT30;61346;48.930;2.266;2022-12-07T04:41:52;3.83;79.31
73149;SHT30;61346;48.930;2.266;2022-12-07T04:44:19;3.82;79.28
73149;SHT30;61346;48.930;2.266;2022-12-07T04:46:45;3.76;79.16
73149;SHT30;61346;48.930;2.266;2022-12-07T04:49:13;3.72;79.31
73149;SHT30;61346;48.930;2.266;2022-12-07T04:51:39;3.69;79.42
73149;SHT30;61346;48.930;2.266;2022-12-07T04:54:04;3.64;79.46
73149;SHT30;61346;48.930;2.266;2022-12-07T04:56:30;3.62;79.64
73149;SHT30;61346;48.930;2.266;2022-12-07T04:58:55;3.58;79.74
73149;SHT30;61346;48.930;2.266;2022-12-07T05:01:22;3.58;80.02
73149;SHT30;61346;48.930;2.266;2022-12-07T05:03:48;3.58;80.19
73149;SHT30;61346;48.930;2.266;2022-12-07T05:06:14;3.56;80.17
73149;SHT30;61346;48.930;2.266;2022-12-07T05:08:39;3.62;80.14
73149;SHT30;61346;48.930;2.266;2022-12-07T05:11:06;3.66;80.09
73149;SHT30;61346;48.930;2.266;2022-12-07T05:13:32;3.70;80.11
73149;SHT30;61346;48.930;2.266;2022-12-07T05:15:58;3.74;80.14
73149;SHT30;61346;48.930;2.266;2022-12-07T05:18:24;3.79;79.87
73149;SHT30;61346;48.930;2.266;2022-12-07T05:20:49;3.79;79.87
73149;SHT30;61346;48.930;2.266;2022-12-07T05:23:16;3.82;79.90
73149;SHT30;61346;48.930;2.266;2022-12-07T05:25:42;3.86;79.65
73149;SHT30;61346;48.930;2.266;2022-12-07T05:28:07;3.87;79.41
73149;SHT30;61346;48.930;2.266;2022-12-07T05:30:33;3.87;79.44
73149;SHT30;61346;48.930;2.266;2022-12-07T05:32:58;3.89;79.45
73149;SHT30;61346;48.930;2.266;2022-12-07T05:35:23;3.86;79.58
73149;SHT30;61346;48.930;2.266;2022-12-07T05:37:49;3.83;79.54
73149;SHT30;61346;48.930;2.266;2022-12-07T05:40:15;3.86;79.75
73149;SHT30;61346;48.930;2.266;2022-12-07T05:42:41;3.87;79.77
73149;SHT30;61346;48.930;2.266;2022-12-07T05:45:08;3.90;79.79
73149;SHT30;61346;48.930;2.266;2022-12-07T05:47:34;3.87;79.89
73149;SHT30;61346;48.930;2.266;2022-12-07T05:49:59;3.91;79.94
73149;SHT30;61346;48.930;2.266;2022-12-07T05:52:24;3.91;79.94
73149;SHT30;61346;48.930;2.266;2022-12-07T05:54:51;3.90;80.10
73149;SHT30;61346;48.930;2.266;2022-12-07T05:57:16;3.93;80.16
73149;SHT30;61346;48.930;2.266;2022-12-07T05:59:44;3.94;80.09
73149;SHT30;61346;48.930;2.266;2022-12-07T06:02:12;3.98;79.97
73149;SHT30;61346;48.930;2.266;2022-12-07T06:04:41;3.97;80.22
73149;SHT30;61346;48.930;2.266;2022-12-07T06:07:07;4.01;80.25
73149;SHT30;61346;48.930;2.266;2022-12-07T06:09:33;4.05;80.07
73149;SHT30;61346;48.930;2.266;2022-12-07T06:11:59;4.11;80.04
73149;SHT30;61346;48.930;2.266;2022-12-07T06:14:43;4.15;79.92
73149;SHT30;61346;48.930;2.266;2022-12-07T06:17:09;4.17;79.98
73149;SHT30;61346;48.930;2.266;2022-12-07T06:19:35;4.14;80.01
73149;SHT30;61346;48.930;2.266;2022-12-07T06:22:04;4.12;80.14
73149;SHT30;61346;48.930;2.266;2022-12-07T06:24:31;4.10;80.13
73149;SHT30;61346;48.930;2.266;2022-12-07T06:26:57;4.14;80.09
73149;SHT30;61346;48.930;2.266;2022-12-07T06:29:22;4.20;80.05
73149;SHT30;61346;48.930;2.266;2022-12-07T06:31:48;4.25;80.02
73149;SHT30;61346;48.930;2.266;2022-12-07T06:34:18;4.29;79.99
73149;SHT30;61346;48.930;2.266;2022-12-07T06:36:44;4.34;79.78
73149;SHT30;61346;48.930;2.266;2022-12-07T06:39:11;4.35;79.77
73149;SHT30;61346;48.930;2.266;2022-12-07T06:41:37;4.35;79.80
73149;SHT30;61346;48.930;2.266;2022-12-07T06:44:04;4.37;79.83
73149;SHT30;61346;48.930;2.266;2022-12-07T06:46:29;4.39;79.69
73149;SHT30;61346;48.930;2.266;2022-12-07T06:48:55;4.42;79.69
73149;SHT30;61346;48.930;2.266;2022-12-07T06:51:20;4.45;79.74
73149;SHT30;61346;48.930;2.266;2022-12-07T08:02:22;4.65;79.38
73149;SHT30;61346;48.930;2.266;2022-12-07T08:16:48;4.60;79.73
73149;SHT30;61346;48.930;2.266;2022-12-07T08:30:04;4.80;79.71
73149;SHT30;61346;48.930;2.266;2022-12-07T08:32:30;4.81;79.64
73149;SHT30;61346;48.930;2.266;2022-12-07T08:34:55;4.86;79.71
73149;SHT30;61346;48.930;2.266;2022-12-07T08:37:21;4.95;79.71
73149;SHT30;61346;48.930;2.266;2022-12-07T08:39:46;5.03;79.73
73149;SHT30;61346;48.930;2.266;2022-12-07T08:42:11;5.07;79.78
73149;SHT30;61346;48.930;2.266;2022-12-07T08:44:37;5.13;79.75
73149;SHT30;61346;48.930;2.266;2022-12-07T08:47:04;5.18;79.65
73149;SHT30;61346;48.930;2.266;2022-12-07T08:49:54;5.25;79.49
73149;SHT30;61346;48.930;2.266;2022-12-07T08:52:21;5.28;79.24
73149;SHT30;61346;48.930;2.266;2022-12-07T08:54:47;5.31;79.29
73149;SHT30;61346;48.930;2.266;2022-12-07T08:57:12;5.38;79.26
73149;SHT30;61346;48.930;2.266;2022-12-07T08:59:37;5.39;79.23
73149;SHT30;61346;48.930;2.266;2022-12-07T09:02:06;5.48;78.91
73149;SHT30;61346;48.930;2.266;2022-12-07T09:04:32;5.48;78.99
73149;SHT30;61346;48.930;2.266;2022-12-07T09:06:57;5.53;78.92
73149;SHT30;61346;48.930;2.266;2022-12-07T09:09:22;5.59;78.60
73149;SHT30;61346;48.930;2.266;2022-12-07T09:11:48;5.60;78.74
73149;SHT30;61346;48.930;2.266;2022-12-07T09:14:13;5.59;78.85
73149;SHT30;61346;48.930;2.266;2022-12-07T09:16:39;5.70;78.86
73149;SHT30;61346;48.930;2.266;2022-12-07T09:19:04;5.77;78.51
73149;SHT30;61346;48.930;2.266;2022-12-07T09:21:30;5.79;78.65
73149;SHT30;61346;48.930;2.266;2022-12-07T09:23:55;5.89;78.33
73149;SHT30;61346;48.930;2.266;2022-12-07T09:26:21;5.91;78.06
73149;SHT30;61346;48.930;2.266;2022-12-07T09:28:46;5.93;78.04
73149;SHT30;61346;48.930;2.266;2022-12-07T09:31:12;5.96;78.02
73149;SHT30;61346;48.930;2.266;2022-12-07T09:33:37;6.03;78.02
73149;SHT30;61346;48.930;2.266;2022-12-07T09:36:03;6.07;78.19
73149;SHT30;61346;48.930;2.266;2022-12-07T09:38:30;6.08;77.77
73149;SHT30;61346;48.930;2.266;2022-12-07T09:41:04;6.08;77.88
73149;SHT30;61346;48.930;2.266;2022-12-07T09:43:30;6.07;77.90
73149;SHT30;61346;48.930;2.266;2022-12-07T09:45:56;6.06;78.04
73149;SHT30;61346;48.930;2.266;2022-12-07T09:48:27;6.10;78.03
73149;SHT30;61346;48.930;2.266;2022-12-07T09:50:56;6.13;77.92
73149;SHT30;61346;48.930;2.266;2022-12-07T09:53:28;6.11;77.99
73149;SHT30;61346;48.930;2.266;2022-12-07T09:55:54;6.11;77.97
73149;SHT30;61346;48.930;2.266;2022-12-07T09:58:23;6.11;78.21
73149;SHT30;61346;48.930;2.266;2022-12-07T10:00:51;6.15;78.04
73149;SHT30;61346;48.930;2.266;2022-12-07T10:03:18;6.21;77.70
73149;SHT30;61346;48.930;2.266;2022-12-07T10:05:50;6.18;77.79
73149;SHT30;61346;48.930;2.266;2022-12-07T10:08:17;6.26;77.82
73149;SHT30;61346;48.930;2.266;2022-12-07T10:10:44;6.28;77.80
73149;SHT30;61346;48.930;2.266;2022-12-07T10:13:33;6.34;77.70
73149;SHT30;61346;48.930;2.266;2022-12-07T10:15:59;6.41;77.52
73149;SHT30;61346;48.930;2.266;2022-12-07T10:18:38;6.44;77.58
73149;SHT30;61346;48.930;2.266;2022-12-07T10:21:21;6.48;77.47
73149;SHT30;61346;48.930;2.266;2022-12-07T10:26:40;6.61;77.35
73149;SHT30;61346;48.930;2.266;2022-12-07T10:29:19;6.66;77.30
73149;SHT30;61346;48.930;2.266;2022-12-07T10:34:37;6.77;77.16
73149;SHT30;61346;48.930;2.266;2022-12-07T10:39:51;6.97;77.38
73149;SHT30;61346;48.930;2.266;2022-12-07T10:42:31;7.14;76.92
73149;SHT30;61346;48.930;2.266;2022-12-07T10:45:15;7.17;76.85
73149;SHT30;61346;48.930;2.266;2022-12-07T10:47:59;7.28;76.87
73149;SHT30;61346;48.930;2.266;2022-12-07T10:50:59;7.35;76.72
73149;SHT30;61346;48.930;2.266;2022-12-07T10:53:36;7.42;76.53
73149;SHT30;61346;48.930;2.266;2022-12-07T11:07:20;7.75;76.36
73149;SHT30;61346;48.930;2.266;2022-12-07T11:09:49;7.77;76.31
73149;SHT30;61346;48.930;2.266;2022-12-07T11:12:26;7.86;76.24
73149;SHT30;61346;48.930;2.266;2022-12-07T11:15:02;7.93;76.18
73149;SHT30;61346;48.930;2.266;2022-12-07T11:22:58;8.13;75.85
73149;SHT30;61346;48.930;2.266;2022-12-07T11:25:39;8.20;76.07
73149;SHT30;61346;48.930;2.266;2022-12-07T11:33:37;8.30;75.41
73149;SHT30;61346;48.930;2.266;2022-12-07T15:48:12;9.48;71.25
73149;SHT30;61346;48.930;2.266;2022-12-07T15:50:37;9.45;71.31
73149;SHT30;61346;48.930;2.266;2022-12-07T15:53:05;9.36;71.46
73149;SHT30;61346;48.930;2.266;2022-12-07T15:55:33;9.28;71.64
73149;SHT30;61346;48.930;2.266;2022-12-07T15:57:59;9.27;71.82
73149;SHT30;61346;48.930;2.266;2022-12-07T16:00:26;9.18;72.04
73149;SHT30;61346;48.930;2.266;2022-12-07T16:02:51;9.15;72.05
73149;SHT30;61346;48.930;2.266;2022-12-07T16:05:20;9.14;72.05
73149;SHT30;61346;48.930;2.266;2022-12-07T16:07:55;9.11;72.20
73149;SHT30;61346;48.930;2.266;2022-12-07T16:10:23;9.07;72.32
73149;SHT30;61346;48.930;2.266;2022-12-07T16:12:51;9.06;72.30
73149;SHT30;61346;48.930;2.266;2022-12-07T16:15:16;9.01;72.44
73149;SHT30;61346;48.930;2.266;2022-12-07T16:17:42;9.00;72.63
73149;SHT30;61346;48.930;2.266;2022-12-07T16:20:09;9.00;72.59
73149;SHT30;61346;48.930;2.266;2022-12-07T16:22:35;8.97;72.67
73149;SHT30;61346;48.930;2.266;2022-12-07T16:25:08;8.94;72.65
73149;SHT30;61346;48.930;2.266;2022-12-07T16:27:36;8.94;72.74
73149;SHT30;61346;48.930;2.266;2022-12-07T16:30:03;8.94;72.86
73149;SHT30;61346;48.930;2.266;2022-12-07T16:32:33;8.88;72.79
73149;SHT30;61346;48.930;2.266;2022-12-07T16:34:58;8.90;72.74
73149;SHT30;61346;48.930;2.266;2022-12-07T16:37:29;8.90;72.85
73149;SHT30;61346;48.930;2.266;2022-12-07T16:39:57;8.91;73.03
73149;SHT30;61346;48.930;2.266;2022-12-07T16:42:31;8.90;72.95
73149;SHT30;61346;48.930;2.266;2022-12-07T16:44:57;8.90;72.87
73149;SHT30;61346;48.930;2.266;2022-12-07T16:47:22;8.93;72.56
73149;SHT30;61346;48.930;2.266;2022-12-07T16:49:48;8.91;72.47
73149;SHT30;61346;48.930;2.266;2022-12-07T16:52:13;8.90;72.64
73149;SHT30;61346;48.930;2.266;2022-12-07T16:54:39;8.88;72.66
73149;SHT30;61346;48.930;2.266;2022-12-07T16:57:04;8.88;72.64
73149;SHT30;61346;48.930;2.266;2022-12-07T16:59:32;8.86;72.63
73149;SHT30;61346;48.930;2.266;2022-12-07T17:02:00;8.83;72.74
73149;SHT30;61346;48.930;2.266;2022-12-07T17:04:25;8.81;72.79
73149;SHT30;61346;48.930;2.266;2022-12-07T17:06:56;8.76;72.73
73149;SHT30;61346;48.930;2.266;2022-12-07T17:09:22;8.75;72.81
73149;SHT30;61346;48.930;2.266;2022-12-07T17:11:50;8.73;72.83
73149;SHT30;61346;48.930;2.266;2022-12-07T17:14:16;8.68;72.86
73149;SHT30;61346;48.930;2.266;2022-12-07T17:17:09;8.62;72.91
73149;SHT30;61346;48.930;2.266;2022-12-07T17:19:36;8.55;72.97
73149;SHT30;61346;48.930;2.266;2022-12-07T17:22:05;8.52;72.98
73149;SHT30;61346;48.930;2.266;2022-12-07T17:24:36;8.45;73.10
73149;SHT30;61346;48.930;2.266;2022-12-07T17:27:02;8.44;73.00
73149;SHT30;61346;48.930;2.266;2022-12-07T17:29:27;8.41;73.07
73149;SHT30;61346;48.930;2.266;2022-12-07T17:31:57;8.31;73.04
73149;SHT30;61346;48.930;2.266;2022-12-07T17:34:32;8.25;73.16
73149;SHT30;61346;48.930;2.266;2022-12-07T17:36:58;8.17;73.24
73149;SHT30;61346;48.930;2.266;2022-12-07T17:39:26;8.13;73.51
73149;SHT30;61346;48.930;2.266;2022-12-07T17:41:56;8.08;73.66
73149;SHT30;61346;48.930;2.266;2022-12-07T17:44:40;8.03;73.79
73149;SHT30;61346;48.930;2.266;2022-12-07T17:47:07;8.03;74.22
73149;SHT30;61346;48.930;2.266;2022-12-07T17:49:40;8.00;74.12
73149;SHT30;61346;48.930;2.266;2022-12-07T17:52:06;7.97;74.07
73149;SHT30;61346;48.930;2.266;2022-12-07T17:54:53;7.97;74.00
73149;SHT30;61346;48.930;2.266;2022-12-07T17:57:22;7.94;74.01
73149;SHT30;61346;48.930;2.266;2022-12-07T18:56:44;7.70;74.11
73149;SHT30;61346;48.930;2.266;2022-12-07T19:09:52;7.79;74.21
73149;SHT30;61346;48.930;2.266;2022-12-07T19:33:53;7.90;73.90
73149;SHT30;61346;48.930;2.266;2022-12-07T19:51:04;7.93;73.69
73149;SHT30;61346;48.930;2.266;2022-12-07T19:53:47;7.94;73.76
73149;SHT30;61346;48.930;2.266;2022-12-07T19:56:51;7.91;73.83
73149;SHT30;61346;48.930;2.266;2022-12-07T19:59:20;7.95;73.73
73149;SHT30;61346;48.930;2.266;2022-12-07T20:34:43;7.94;73.61
73149;SHT30;61346;48.930;2.266;2022-12-07T21:03:22;7.90;74.01
